Time;durP1;ratioP1;P1;durP2;ratioP2;P2;SDS_P1;SDS_P2;PMS_P1;PMS_P2;Temp;Humidity;BMP_temperature;BMP_pressure;BME280_temperature;BME280_humidity;BME280_pressure;Samples;Min_cycle;Max_cycle;Signal;HPM_P1;HPM_P2
2022/03/17 00:01:26;;;;;;;47.10;26.70;;;;;0.72;98464.00;;;;111096;1248;41136;-65
2022/03/17 00:03:56;;;;;;;43.00;23.50;;;;;0.72;98469.40;;;;111053;1249;41642;-65
2022/03/17 00:06:26;;;;;;;35.00;19.80;;;;;0.70;98466.20;;;;111101;1248;41235;-65
2022/03/17 00:08:55;;;;;;;47.70;23.30;;;;;0.70;98467.60;;;;111071;1249;41597;-65
2022/03/17 00:11:25;;;;;;;54.20;28.40;;;;;0.70;98465.60;;;;111125;1248;41193;-66
2022/03/17 00:13:55;;;;;;;50.50;27.30;;;;;0.70;98466.40;;;;111156;1247;41250;-66
2022/03/17 00:16:25;;;;;;;43.70;24.40;;;;;0.70;98467.00;;;;110984;1250;41534;-67
2022/03/17 00:18:58;;;;;;;41.50;24.80;;;;;0.62;98469.20;;;;110974;1249;41143;-66
2022/03/17 00:21:28;;;;;;;46.70;23.50;;;;;0.60;98466.80;;;;111013;1249;41932;-66
2022/03/17 00:23:57;;;;;;;50.20;26.20;;;;;0.60;98468.00;;;;111109;1248;41147;-66
2022/03/17 00:26:27;;;;;;;43.00;23.80;;;;;0.50;98464.40;;;;111065;1248;41641;-65
2022/03/17 00:28:57;;;;;;;47.60;24.30;;;;;0.50;98463.40;;;;111168;1247;41203;-66
2022/03/17 00:31:27;;;;;;;47.80;23.10;;;;;0.40;98464.60;;;;111023;1248;41636;-65
2022/03/17 00:33:56;;;;;;;44.00;21.70;;;;;0.30;98463.00;;;;111245;1245;41533;-66
2022/03/17 00:36:26;;;;;;;47.30;22.80;;;;;0.30;98468.00;;;;110998;1249;41149;-66
2022/03/17 00:38:56;;;;;;;42.40;20.60;;;;;0.20;98465.40;;;;111124;1247;41260;-66
2022/03/17 00:41:26;;;;;;;45.10;24.10;;;;;0.18;98467.20;;;;111038;1249;41161;-66
2022/03/17 00:43:56;;;;;;;44.60;24.20;;;;;0.16;98467.20;;;;111046;1247;42160;-66
2022/03/17 00:46:26;;;;;;;47.30;23.80;;;;;0.10;98471.60;;;;111148;1247;41149;-66
2022/03/17 00:48:56;;;;;;;45.50;21.60;;;;;0.10;98466.20;;;;111146;1247;41140;-66
2022/03/17 00:51:26;;;;;;;38.90;21.00;;;;;0.10;98471.40;;;;111072;1247;41541;-66
2022/03/17 00:53:56;;;;;;;53.40;24.90;;;;;0.10;98466.40;;;;111032;1247;41591;-66
2022/03/17 00:56:26;;;;;;;46.30;24.60;;;;;0.10;98467.20;;;;110949;1250;41149;-66
2022/03/17 00:58:56;;;;;;;44.80;23.00;;;;;0.00;98466.40;;;;111046;1248;41125;-66
2022/03/17 01:01:26;;;;;;;41.40;22.70;;;;;0.00;98469.40;;;;111103;1248;41360;-66
2022/03/17 01:03:57;;;;;;;39.00;20.10;;;;;-0.08;98474.40;;;;111022;1249;41150;-65
2022/03/17 01:06:27;;;;;;;37.60;18.60;;;;;-0.10;98475.00;;;;111043;1248;41957;-65
2022/03/17 01:08:57;;;;;;;29.10;15.50;;;;;-0.12;98476.00;;;;111070;1248;41274;-67
2022/03/17 01:11:27;;;;;;;33.00;16.20;;;;;-0.20;98478.60;;;;111377;1247;41144;-66
2022/03/17 01:13:57;;;;;;;31.90;16.00;;;;;-0.22;98479.00;;;;110967;1249;42006;-67
2022/03/17 01:16:27;;;;;;;35.80;17.90;;;;;-0.30;98486.00;;;;111055;1248;41958;-67
2022/03/17 01:18:57;;;;;;;30.20;16.70;;;;;-0.32;98484.00;;;;110978;1247;41608;-66
2022/03/17 01:21:29;;;;;;;30.20;15.70;;;;;-0.40;98490.40;;;;110844;1247;41152;-66
2022/03/17 01:23:59;;;;;;;28.30;14.40;;;;;-0.40;98492.40;;;;111116;1247;41154;-66
2022/03/17 01:26:30;;;;;;;30.60;14.90;;;;;-0.46;98490.80;;;;111168;1247;41169;-66
2022/03/17 01:29:00;;;;;;;34.20;16.30;;;;;-0.50;98489.60;;;;110940;1249;41131;-65
2022/03/17 01:31:30;;;;;;;39.90;18.70;;;;;-0.50;98491.40;;;;111131;1247;41153;-65
2022/03/17 01:34:01;;;;;;;36.90;18.30;;;;;-0.50;98493.40;;;;111103;1248;42392;-65
2022/03/17 01:36:31;;;;;;;30.10;15.10;;;;;-0.50;98495.40;;;;111096;1248;41590;-66
2022/03/17 01:39:01;;;;;;;31.60;14.40;;;;;-0.50;98492.40;;;;110893;1250;41150;-67
2022/03/17 01:41:32;;;;;;;31.60;15.30;;;;;-0.56;98487.60;;;;111114;1247;41345;-66
2022/03/17 01:44:02;;;;;;;29.70;14.40;;;;;-0.60;98488.20;;;;111129;1247;41255;-66
2022/03/17 01:47:26;;;;;;;26.10;13.70;;;;;-0.60;98486.40;;;;111212;1245;41593;-66
2022/03/17 01:49:26;;;;;;;26.50;13.30;;;;;-0.60;98487.40;;;;111255;1247;41298;-66
2022/03/17 01:51:56;;;;;;;27.30;14.60;;;;;-0.60;98489.60;;;;110840;1249;41910;-66
2022/03/17 01:54:27;;;;;;;31.60;15.50;;;;;-0.60;98490.60;;;;111117;1246;41793;-65
2022/03/17 01:57:08;;;;;;;32.20;17.00;;;;;-0.60;98495.20;;;;111129;1248;41262;-66
2022/03/17 01:59:40;;;;;;;44.50;24.10;;;;;-0.60;98501.40;;;;111031;1247;42736;-66
2022/03/17 02:02:12;;;;;;;52.80;24.50;;;;;-0.60;98504.60;;;;110797;1248;41181;-66
2022/03/17 02:04:43;;;;;;;45.60;23.50;;;;;-0.88;98508.20;;;;111101;1247;41467;-66
2022/03/17 02:07:14;;;;;;;;;;;;;-1.00;98510.80;;;;111442;1246;42179;-66
2022/03/17 02:09:45;;;;;;;41.10;21.30;;;;;-1.10;98518.60;;;;111140;1247;41264;-66
2022/03/17 02:15:08;;;;;;;34.70;16.90;;;;;-1.20;98515.00;;;;111124;1247;41205;-66
2022/03/17 02:17:40;;;;;;;33.30;17.00;;;;;-1.24;98520.20;;;;110807;1248;41164;-67
2022/03/17 02:20:13;;;;;;;35.00;17.60;;;;;-1.30;98512.40;;;;111048;1247;41183;-66
2022/03/17 02:22:49;;;;;;;32.80;17.60;;;;;-1.30;98514.40;;;;111013;1248;41266;-68
2022/03/17 02:25:36;;;;;;;29.80;15.80;;;;;-1.38;98518.80;;;;111117;1247;41853;-66
2022/03/17 02:28:07;;;;;;;31.40;15.40;;;;;-1.40;98516.40;;;;111113;1247;41661;-66
2022/03/17 02:30:38;;;;;;;32.20;15.10;;;;;-1.40;98521.00;;;;111057;1250;42383;-66
2022/03/17 02:33:10;;;;;;;34.60;17.00;;;;;-1.40;98526.40;;;;111125;1247;41153;-66
2022/03/17 02:35:41;;;;;;;35.30;17.10;;;;;-1.40;98527.60;;;;111105;1247;42075;-64
2022/03/17 02:38:14;;;;;;;30.80;16.50;;;;;-1.40;98533.60;;;;110944;1247;41156;-68
2022/03/17 02:40:46;;;;;;;32.20;16.80;;;;;-1.40;98533.20;;;;111032;1248;41254;-67
2022/03/17 02:43:18;;;;;;;37.10;18.40;;;;;-1.40;98545.60;;;;110965;1250;41247;-66
2022/03/17 02:45:48;;;;;;;35.30;18.00;;;;;-1.40;98549.20;;;;110989;1250;41589;-66
2022/03/17 02:48:19;;;;;;;32.60;16.30;;;;;-1.40;98554.80;;;;111064;1247;42380;-66
2022/03/17 02:50:50;;;;;;;29.50;15.70;;;;;-1.40;98556.80;;;;111041;1249;41843;-66
2022/03/17 02:53:20;;;;;;;31.70;15.60;;;;;-1.40;98557.80;;;;111048;1248;41241;-65
2022/03/17 02:55:50;;;;;;;35.10;16.20;;;;;-1.40;98559.40;;;;111014;1248;41606;-66
2022/03/17 02:58:21;;;;;;;28.70;15.50;;;;;-1.46;98557.20;;;;111055;1248;41609;-66
2022/03/17 03:00:51;;;;;;;31.20;14.90;;;;;-1.50;98561.00;;;;111051;1247;41135;-66
2022/03/17 03:03:22;;;;;;;33.30;15.20;;;;;-1.50;98561.00;;;;110965;1247;41277;-67
2022/03/17 03:05:53;;;;;;;33.70;15.40;;;;;-1.50;98569.40;;;;111334;1247;41146;-65
2022/03/17 03:08:24;;;;;;;35.10;15.60;;;;;-1.50;98570.80;;;;111105;1247;41140;-67
2022/03/17 03:10:56;;;;;;;27.50;15.40;;;;;-1.50;98571.20;;;;111188;1247;41218;-67
2022/03/17 03:13:26;;;;;;;31.20;14.50;;;;;-1.50;98575.60;;;;111161;1247;41927;-66
2022/03/17 03:15:57;;;;;;;;;;;;;-1.50;98581.20;;;;111332;1247;41140;-67
2022/03/17 03:18:28;;;;;;;31.30;15.80;;;;;-1.50;98580.40;;;;111339;1247;41516;-67
2022/03/17 03:20:57;;;;;;;34.90;15.80;;;;;-1.56;98581.40;;;;111158;1247;41702;-66
2022/03/17 03:23:28;;;;;;;30.60;15.00;;;;;-1.60;98588.00;;;;111172;1246;41139;-65
2022/03/17 03:25:58;;;;;;;30.30;14.80;;;;;-1.60;98594.00;;;;111125;1248;41155;-66
2022/03/17 03:28:28;;;;;;;33.60;16.30;;;;;-1.60;98598.00;;;;111056;1247;41393;-66
2022/03/17 03:30:58;;;;;;;32.30;16.90;;;;;-1.60;98588.80;;;;111041;1247;42395;-65
2022/03/17 03:33:28;;;;;;;30.90;15.80;;;;;-1.62;98592.40;;;;111044;1248;42046;-65
2022/03/17 03:38:46;;;;;;;44.00;21.30;;;;;-1.70;98594.40;;;;111108;1246;41167;-66
2022/03/17 03:41:16;;;;;;;39.80;20.10;;;;;-1.72;98596.20;;;;110938;1250;41591;-64
2022/03/17 03:43:46;;;;;;;42.30;21.00;;;;;-1.78;98599.00;;;;111051;1250;41603;-66
2022/03/17 03:46:17;;;;;;;39.40;20.00;;;;;-1.80;98599.40;;;;111066;1248;41168;-67
2022/03/17 03:48:46;;;;;;;35.20;17.40;;;;;-1.80;98608.20;;;;111121;1247;41272;-66
2022/03/17 03:51:16;;;;;;;29.30;15.00;;;;;-1.90;98613.20;;;;111289;1247;41131;-66
2022/03/17 03:56:35;;;;;;;33.10;16.00;;;;;-1.98;98613.40;;;;111098;1247;41132;-65
2022/03/17 03:59:08;;;;;;;28.60;14.40;;;;;-2.02;98618.20;;;;111103;1247;41129;-64
2022/03/17 04:01:37;;;;;;;28.90;13.90;;;;;-2.10;98624.00;;;;111140;1247;41151;-66
2022/03/17 04:04:08;;;;;;;29.20;14.40;;;;;-2.10;98620.80;;;;111087;1248;41157;-69
2022/03/17 04:06:47;;;;;;;27.20;13.40;;;;;-2.16;98625.80;;;;110972;1250;41251;-66
2022/03/17 04:09:19;;;;;;;25.70;13.70;;;;;-2.20;98631.40;;;;111061;1248;41124;-66
2022/03/17 04:11:48;;;;;;;27.10;14.30;;;;;-2.20;98636.60;;;;111150;1247;41738;-65
2022/03/17 04:14:19;;;;;;;32.90;16.60;;;;;-2.20;98637.20;;;;111094;1247;42003;-66
2022/03/17 04:16:49;;;;;;;31.20;16.10;;;;;-2.20;98646.00;;;;111051;1248;41155;-66
2022/03/17 04:19:19;;;;;;;37.10;19.00;;;;;-2.20;98646.20;;;;111008;1247;41322;-67
2022/03/17 04:21:50;;;;;;;39.00;18.30;;;;;-2.20;98650.60;;;;111009;1248;42014;-65
2022/03/17 04:24:20;;;;;;;31.60;16.20;;;;;-2.20;98651.20;;;;111124;1247;42184;-66
2022/03/17 04:26:52;;;;;;;36.90;17.20;;;;;-2.20;98657.00;;;;110989;1249;41181;-66
2022/03/17 04:29:21;;;;;;;40.20;20.10;;;;;-2.20;98659.00;;;;111069;1247;41245;-64
2022/03/17 04:31:51;;;;;;;35.60;18.80;;;;;-2.18;98662.80;;;;110853;1248;41614;-65
2022/03/17 04:34:22;;;;;;;42.50;19.60;;;;;-2.10;98667.80;;;;111016;1247;41813;-65
2022/03/17 04:36:51;;;;;;;35.00;18.40;;;;;-2.10;98670.80;;;;111039;1248;41256;-66
2022/03/17 04:39:21;;;;;;;34.40;17.40;;;;;-2.10;98675.20;;;;111020;1249;41165;-65
2022/03/17 04:41:51;;;;;;;32.30;15.70;;;;;-2.10;98671.60;;;;111137;1247;41212;-64
2022/03/17 04:44:25;;;;;;;27.50;13.90;;;;;-2.10;98674.00;;;;111097;1248;41610;-66
2022/03/17 04:46:54;;;;;;;27.90;14.10;;;;;-2.10;98673.20;;;;111045;1247;41252;-65
2022/03/17 04:49:24;;;;;;;26.80;13.10;;;;;-2.12;98679.20;;;;111028;1248;41179;-65
2022/03/17 04:51:53;;;;;;;25.90;13.60;;;;;-2.12;98682.20;;;;110930;1249;41255;-65
2022/03/17 04:54:23;;;;;;;24.60;12.80;;;;;-2.10;98689.40;;;;111107;1247;41158;-66
2022/03/17 04:56:53;;;;;;;29.80;13.30;;;;;-2.10;98695.20;;;;111085;1248;41154;-64
2022/03/17 04:59:22;;;;;;;27.90;13.50;;;;;-2.06;98697.00;;;;111061;1248;41154;-66
2022/03/17 05:01:52;;;;;;;30.00;15.40;;;;;-2.00;98704.40;;;;111057;1248;41875;-66
2022/03/17 05:04:22;;;;;;;32.50;14.80;;;;;-2.00;98695.20;;;;110863;1250;41264;-65
2022/03/17 05:06:51;;;;;;;30.60;15.50;;;;;-1.98;98702.60;;;;111037;1247;41888;-66
2022/03/17 05:09:21;;;;;;;28.50;14.80;;;;;-1.90;98705.80;;;;110867;1249;41140;-66
2022/03/17 05:11:53;;;;;;;33.10;15.90;;;;;-1.90;98712.00;;;;111155;1247;40731;-66
2022/03/17 05:14:24;;;;;;;26.10;14.00;;;;;-1.90;98710.60;;;;111009;1248;41514;-65
2022/03/17 05:16:53;;;;;;;28.40;14.20;;;;;-1.82;98708.60;;;;110860;1251;41647;-66
2022/03/17 05:19:23;;;;;;;28.20;15.00;;;;;-1.76;98710.60;;;;110983;1250;40729;-66
2022/03/17 05:21:53;;;;;;;31.30;15.00;;;;;-1.68;98716.60;;;;110993;1250;42101;-68
2022/03/17 05:24:23;;;;;;;36.00;17.50;;;;;-1.60;98717.40;;;;110742;1247;41596;-65
2022/03/17 05:26:54;;;;;;;31.00;14.40;;;;;-1.50;98718.40;;;;110818;1250;41936;-66
2022/03/17 05:29:23;;;;;;;34.20;16.60;;;;;-1.40;98720.80;;;;110894;1247;41159;-66
2022/03/17 05:31:53;;;;;;;29.20;15.10;;;;;-1.40;98726.60;;;;110792;1250;42358;-65
2022/03/17 05:34:23;;;;;;;30.10;14.80;;;;;-1.30;98722.60;;;;110852;1250;41315;-65
2022/03/17 05:36:52;;;;;;;40.80;20.00;;;;;-1.30;98729.60;;;;111049;1248;41976;-67
2022/03/17 05:39:21;;;;;;;65.00;27.20;;;;;-1.24;98724.60;;;;111060;1248;41141;-66
2022/03/17 05:41:51;;;;;;;53.20;25.00;;;;;-1.20;98729.40;;;;111069;1248;41343;-66
2022/03/17 05:44:20;;;;;;;46.20;21.90;;;;;-1.10;98728.80;;;;110554;1250;41134;-65
2022/03/17 05:46:49;;;;;;;43.50;20.80;;;;;-1.10;98736.80;;;;111080;1247;41195;-66
2022/03/17 05:49:19;;;;;;;46.40;21.80;;;;;-1.00;98742.20;;;;111130;1247;41139;-66
2022/03/17 05:51:49;;;;;;;41.50;20.40;;;;;-0.90;98739.20;;;;111052;1247;41187;-66
2022/03/17 05:54:21;;;;;;;36.70;18.20;;;;;-0.82;98742.20;;;;110847;1249;41135;-66
2022/03/17 05:56:50;;;;;;;36.60;18.30;;;;;-0.80;98746.80;;;;111032;1249;41164;-66
2022/03/17 05:59:20;;;;;;;32.50;16.60;;;;;-0.70;98747.80;;;;111046;1249;41176;-66
2022/03/17 06:01:49;;;;;;;33.40;15.90;;;;;-0.60;98754.60;;;;110854;1250;41934;-64
2022/03/17 06:04:40;;;;;;;31.60;15.20;;;;;-0.50;98747.40;;;;111020;1248;41311;-65
2022/03/17 06:07:10;;;;;;;34.20;15.50;;;;;-0.40;98750.60;;;;110892;1250;41141;-66
2022/03/17 06:09:40;;;;;;;32.60;16.00;;;;;-0.30;98753.80;;;;111078;1248;41508;-65
2022/03/17 06:12:11;;;;;;;29.00;14.50;;;;;-0.20;98755.80;;;;111074;1247;41261;-64
2022/03/17 06:14:40;;;;;;;28.90;14.40;;;;;0.00;98756.80;;;;110739;1251;41253;-65
2022/03/17 06:17:12;;;;;;;26.30;13.80;;;;;0.12;98751.40;;;;110989;1248;41624;-64
2022/03/17 06:19:41;;;;;;;31.30;15.50;;;;;0.30;98752.60;;;;111016;1248;41155;-65
2022/03/17 06:22:11;;;;;;;38.20;18.30;;;;;0.46;98756.60;;;;111061;1247;41210;-65
2022/03/17 06:24:40;;;;;;;46.00;21.80;;;;;0.60;98756.40;;;;111074;1248;41133;-65
2022/03/17 06:27:10;;;;;;;43.30;20.70;;;;;0.70;98756.20;;;;111058;1247;41144;-65
2022/03/17 06:29:39;;;;;;;40.10;19.70;;;;;0.82;98757.80;;;;111072;1247;41155;-65
2022/03/17 06:32:09;;;;;;;52.80;27.40;;;;;1.04;98763.40;;;;111051;1248;41145;-65
2022/03/17 06:34:38;;;;;;;53.80;29.30;;;;;1.20;98764.80;;;;111058;1248;41279;-66
2022/03/17 06:37:09;;;;;;;43.30;20.50;;;;;1.30;98757.60;;;;110839;1247;42330;-64
2022/03/17 06:39:38;;;;;;;49.70;25.90;;;;;1.40;98767.20;;;;110790;1247;41300;-65
2022/03/17 06:42:07;;;;;;;64.00;32.70;;;;;1.56;98765.00;;;;111148;1247;41607;-65
2022/03/17 06:44:37;;;;;;;78.50;36.60;;;;;1.70;98769.80;;;;111030;1247;41140;-65
2022/03/17 06:47:06;;;;;;;84.60;36.40;;;;;1.70;98767.00;;;;111120;1246;41714;-65
2022/03/17 06:49:35;;;;;;;54.60;29.90;;;;;1.82;98765.40;;;;111116;1247;41254;-66
2022/03/17 06:52:05;;;;;;;50.70;26.00;;;;;2.00;98773.00;;;;111013;1248;41296;-65
2022/03/17 06:54:34;;;;;;;48.30;23.90;;;;;2.20;98776.60;;;;111081;1248;41136;-65
2022/03/17 06:57:04;;;;;;;40.90;21.40;;;;;2.40;98774.20;;;;111094;1247;41270;-65
2022/03/17 06:59:33;;;;;;;38.90;20.10;;;;;2.58;98771.00;;;;111070;1247;41124;-67
2022/03/17 07:02:03;;;;;;;38.80;19.80;;;;;2.80;98771.00;;;;111080;1246;41379;-65
2022/03/17 07:04:32;;;;;;;57.50;28.90;;;;;3.00;98767.80;;;;111044;1247;41151;-64
2022/03/17 07:07:02;;;;;;;53.60;28.40;;;;;3.20;98773.80;;;;110989;1247;41542;-65
2022/03/17 07:09:31;;;;;;;50.30;26.60;;;;;3.20;98772.40;;;;111033;1247;42171;-65
2022/03/17 07:12:00;;;;;;;48.20;23.10;;;;;3.26;98776.60;;;;111036;1248;41892;-66
2022/03/17 07:14:30;;;;;;;39.80;19.20;;;;;3.44;98775.60;;;;111068;1247;41564;-65
2022/03/17 07:16:59;;;;;;;46.20;23.50;;;;;3.70;98782.40;;;;111112;1248;41481;-64
2022/03/17 07:19:30;;;;;;;45.10;21.20;;;;;3.80;98776.60;;;;111170;1247;41247;-67
2022/03/17 07:21:59;;;;;;;44.80;24.10;;;;;3.90;98780.40;;;;111053;1247;41145;-66
2022/03/17 07:24:29;;;;;;;39.00;19.00;;;;;4.02;98780.80;;;;110960;1247;41642;-65
2022/03/17 07:26:59;;;;;;;45.60;19.80;;;;;4.20;98790.00;;;;111132;1247;41257;-66
2022/03/17 07:29:28;;;;;;;34.70;16.50;;;;;4.30;98797.20;;;;111132;1248;41125;-66
2022/03/17 07:31:58;;;;;;;37.10;18.30;;;;;4.50;98782.00;;;;110371;1247;825137;-65
2022/03/17 07:34:28;;;;;;;35.10;18.30;;;;;4.74;98780.80;;;;111036;1248;41597;-65
2022/03/17 07:36:57;;;;;;;29.60;14.90;;;;;5.04;98774.80;;;;111045;1247;41418;-65
2022/03/17 07:39:27;;;;;;;25.10;12.60;;;;;5.40;98773.40;;;;111057;1247;42090;-64
2022/03/17 07:41:59;;;;;;;22.30;11.60;;;;;5.78;98773.00;;;;111082;1247;41264;-65
2022/03/17 07:44:35;;;;;;;27.20;12.70;;;;;6.20;98775.80;;;;111119;1248;41121;-66
2022/03/17 07:47:33;;;;;;;18.90;9.60;;;;;6.60;98778.40;;;;110671;1249;41632;-65
2022/03/17 07:50:04;;;;;;;20.30;9.30;;;;;6.82;98774.80;;;;111207;1247;41606;-66
2022/03/17 07:52:33;;;;;;;;;;;;;7.00;98775.80;;;;111139;1246;41136;-66
2022/03/17 07:55:03;;;;;;;21.60;9.00;;;;;7.20;98770.80;;;;111139;1247;41612;-67
2022/03/17 07:57:35;;;;;;;16.70;8.60;;;;;7.40;98776.40;;;;111063;1247;41596;-66
2022/03/17 08:00:07;;;;;;;21.00;8.70;;;;;7.70;98774.80;;;;111088;1247;41575;-66
2022/03/17 08:02:42;;;;;;;16.10;8.00;;;;;7.90;98776.40;;;;110832;1248;42109;-67
2022/03/17 08:05:14;;;;;;;16.20;7.10;;;;;8.18;98777.60;;;;111086;1247;41930;-64
2022/03/17 08:07:43;;;;;;;14.50;7.10;;;;;8.32;98779.00;;;;111120;1247;41395;-65
2022/03/17 08:10:15;;;;;;;15.50;7.30;;;;;8.56;98776.60;;;;110896;1247;42512;-65
2022/03/17 08:12:47;;;;;;;16.80;7.70;;;;;8.70;98778.60;;;;111205;1247;41829;-66
2022/03/17 08:15:18;;;;;;;17.60;7.40;;;;;8.90;98781.80;;;;111108;1247;42020;-66
2022/03/17 08:17:47;;;;;;;15.80;6.70;;;;;9.10;98786.60;;;;111052;1248;41620;-66
2022/03/17 08:20:16;;;;;;;13.30;6.60;;;;;9.30;98778.20;;;;111005;1250;42726;-67
2022/03/17 08:22:48;;;;;;;15.10;7.50;;;;;9.50;98778.80;;;;110991;1247;41539;-67
2022/03/17 08:25:18;;;;;;;14.90;7.50;;;;;9.70;98778.00;;;;111020;1248;41145;-66
2022/03/17 08:27:46;;;;;;;13.70;6.60;;;;;9.80;98783.60;;;;111072;1247;41257;-67
2022/03/17 08:30:16;;;;;;;15.90;7.50;;;;;9.94;98776.80;;;;111100;1248;41607;-66
2022/03/17 08:32:45;;;;;;;19.30;7.50;;;;;10.08;98780.60;;;;111014;1248;41261;-66
2022/03/17 08:35:15;;;;;;;14.40;7.30;;;;;10.30;98780.20;;;;111033;1248;41177;-65
2022/03/17 08:37:45;;;;;;;16.70;7.80;;;;;10.60;98785.80;;;;110720;1247;41167;-65
2022/03/17 08:40:14;;;;;;;16.60;8.80;;;;;10.80;98783.00;;;;111045;1247;41624;-65
2022/03/17 08:42:43;;;;;;;16.80;8.00;;;;;11.00;98781.40;;;;111120;1247;41139;-66
2022/03/17 08:50:50;;;;;;;19.80;9.00;;;;;11.46;98768.60;;;;111112;1247;41129;-66
2022/03/17 08:53:19;;;;;;;19.10;8.80;;;;;11.80;98765.20;;;;111085;1248;41829;-66
2022/03/17 08:55:49;;;;;;;18.10;8.70;;;;;12.44;98765.80;;;;111065;1247;42507;-65
2022/03/17 08:58:18;;;;;;;17.70;9.00;;;;;12.98;98755.40;;;;111021;1248;41179;-66
2022/03/17 09:00:47;;;;;;;16.80;8.40;;;;;12.72;98760.60;;;;111099;1246;41737;-65
2022/03/17 09:03:18;;;;;;;15.10;7.60;;;;;12.70;98760.20;;;;111082;1247;42388;-66
2022/03/17 09:05:48;;;;;;;16.30;8.20;;;;;12.90;98755.20;;;;111083;1247;41365;-66
2022/03/17 09:08:17;;;;;;;15.30;7.40;;;;;13.00;98750.00;;;;110813;1248;41263;-66
2022/03/17 09:10:48;;;;;;;16.70;7.90;;;;;13.16;98740.80;;;;111095;1247;41243;-68
2022/03/17 09:13:18;;;;;;;17.70;6.80;;;;;13.60;98748.60;;;;111067;1247;41871;-66
2022/03/17 09:15:48;;;;;;;15.40;6.80;;;;;13.80;98748.40;;;;111141;1247;41249;-66
2022/03/17 09:18:19;;;;;;;18.40;8.00;;;;;14.08;98737.00;;;;111098;1247;42161;-66
2022/03/17 09:20:49;;;;;;;15.00;6.90;;;;;14.60;98736.00;;;;111037;1247;41617;-65
2022/03/17 09:23:19;;;;;;;16.50;6.90;;;;;15.56;98736.00;;;;111067;1248;41261;-66
2022/03/17 09:25:48;;;;;;;14.80;5.90;;;;;16.40;98729.80;;;;111022;1247;41146;-66
2022/03/17 09:28:17;;;;;;;13.50;6.00;;;;;17.22;98731.80;;;;111148;1247;41367;-67
2022/03/17 09:30:47;;;;;;;12.80;5.90;;;;;17.70;98738.20;;;;111064;1248;41263;-65
2022/03/17 09:33:16;;;;;;;14.60;6.00;;;;;17.48;98739.00;;;;111134;1247;41502;-66
2022/03/17 09:35:45;;;;;;;13.20;5.60;;;;;17.20;98739.00;;;;111048;1249;42218;-67
2022/03/17 09:38:14;;;;;;;15.00;5.90;;;;;17.00;98741.20;;;;111035;1249;41290;-66
2022/03/17 09:40:44;;;;;;;11.50;5.20;;;;;16.90;98739.40;;;;111135;1247;41143;-66
2022/03/17 09:43:20;;;;;;;14.20;6.30;;;;;16.90;98744.20;;;;111041;1248;41186;-67
2022/03/17 09:45:53;;;;;;;11.40;5.10;;;;;16.80;98746.60;;;;111010;1249;42153;-66
2022/03/17 09:48:23;;;;;;;14.30;6.20;;;;;16.90;98746.40;;;;111146;1246;41130;-67
2022/03/17 09:50:59;;;;;;;;;;;;;16.80;98746.40;;;;111059;1247;41180;-66
2022/03/17 09:53:31;;;;;;;14.50;6.50;;;;;16.70;98746.40;;;;111108;1247;41612;-66
2022/03/17 09:56:00;;;;;;;13.60;5.90;;;;;16.44;98754.00;;;;111113;1247;41142;-67
2022/03/17 09:58:30;;;;;;;12.00;5.70;;;;;16.12;98762.00;;;;111095;1248;41782;-67
2022/03/17 10:01:01;;;;;;;11.60;5.60;;;;;15.80;98763.40;;;;111103;1247;41672;-67
2022/03/17 10:03:34;;;;;;;12.00;5.70;;;;;15.58;98759.00;;;;111083;1247;42085;-67
2022/03/17 10:06:05;;;;;;;11.50;5.30;;;;;15.52;98765.60;;;;111169;1247;41223;-67
2022/03/17 10:08:37;;;;;;;11.20;5.20;;;;;15.60;98767.80;;;;111078;1246;41250;-66
2022/03/17 10:11:06;;;;;;;13.00;5.90;;;;;15.50;98769.40;;;;111140;1247;41161;-66
2022/03/17 10:13:46;;;;;;;12.00;5.60;;;;;15.20;98773.60;;;;110788;1248;41170;-66
2022/03/17 10:16:17;;;;;;;10.70;4.90;;;;;14.90;98781.80;;;;111172;1247;41244;-66
2022/03/17 10:19:01;;;;;;;11.10;5.10;;;;;14.70;98777.40;;;;111113;1247;41163;-66
2022/03/17 10:21:31;;;;;;;16.50;6.20;;;;;14.60;98777.00;;;;111122;1247;41910;-66
2022/03/17 10:24:06;;;;;;;14.40;5.60;;;;;14.30;98781.20;;;;111065;1247;41490;-66
2022/03/17 10:26:39;;;;;;;12.10;5.40;;;;;14.08;98776.80;;;;111084;1247;41134;-66
2022/03/17 10:29:19;;;;;;;13.50;6.30;;;;;13.90;98774.00;;;;111111;1247;41126;-66
2022/03/17 10:31:59;;;;;;;11.70;5.50;;;;;13.74;98781.00;;;;111143;1247;41147;-66
2022/03/17 10:34:55;;;;;;;11.10;5.40;;;;;13.50;98783.40;;;;111034;1247;41158;-66
2022/03/17 10:37:25;;;;;;;12.60;5.30;;;;;13.30;98787.00;;;;110968;1247;41971;-66
2022/03/17 10:39:57;;;;;;;13.10;6.10;;;;;13.36;98785.60;;;;111104;1247;41123;-67
2022/03/17 10:42:29;;;;;;;14.00;5.90;;;;;13.38;98785.80;;;;110649;1250;41273;-67
2022/03/17 10:45:03;;;;;;;13.40;6.30;;;;;13.36;98787.00;;;;111134;1247;41158;-66
2022/03/17 10:47:43;;;;;;;17.30;6.50;;;;;13.32;98783.00;;;;111104;1247;41375;-67
2022/03/17 10:50:16;;;;;;;20.20;6.70;;;;;13.20;98781.20;;;;111104;1247;41114;-66
2022/03/17 10:52:53;;;;;;;12.90;6.00;;;;;12.74;98780.80;;;;111111;1247;41142;-66
2022/03/17 10:55:27;;;;;;;12.70;5.60;;;;;12.60;98778.00;;;;110852;1250;42132;-67
2022/03/17 10:58:16;;;;;;;13.90;5.60;;;;;12.70;98781.00;;;;111002;1249;41143;-66
2022/03/17 11:00:47;;;;;;;15.00;5.60;;;;;12.80;98780.00;;;;110991;1247;41152;-66
2022/03/17 11:03:20;;;;;;;14.30;6.50;;;;;12.90;98772.80;;;;111092;1247;41590;-66
2022/03/17 11:05:51;;;;;;;13.10;5.70;;;;;12.92;98774.00;;;;111122;1246;41129;-66
2022/03/17 11:08:21;;;;;;;13.20;6.10;;;;;13.04;98774.60;;;;111110;1247;41250;-66
2022/03/17 11:10:50;;;;;;;12.50;5.40;;;;;13.10;98773.00;;;;111108;1247;41274;-67
2022/03/17 11:13:20;;;;;;;12.90;6.10;;;;;13.10;98773.20;;;;111119;1246;41553;-67
2022/03/17 11:16:06;;;;;;;12.20;6.00;;;;;13.00;98772.80;;;;111104;1247;41611;-67
2022/03/17 11:18:37;;;;;;;13.70;5.50;;;;;12.80;98776.60;;;;110867;1250;42236;-67
2022/03/17 11:21:19;;;;;;;14.20;6.40;;;;;12.52;98772.20;;;;111146;1247;42232;-66
2022/03/17 11:23:56;;;;;;;15.50;7.30;;;;;12.00;98762.00;;;;111139;1247;41157;-66
2022/03/17 11:26:38;;;;;;;13.60;6.20;;;;;11.60;98768.60;;;;111087;1247;41321;-66
2022/03/17 11:29:09;;;;;;;12.20;5.80;;;;;11.20;98768.40;;;;111133;1247;42005;-66
2022/03/17 11:31:56;;;;;;;13.80;5.40;;;;;11.10;98764.40;;;;111141;1247;41806;-68
2022/03/17 11:34:37;;;;;;;11.70;5.20;;;;;11.10;98765.60;;;;111134;1247;41150;-67
2022/03/17 11:37:26;;;;;;;11.30;6.00;;;;;11.10;98761.60;;;;111153;1247;41592;-66
2022/03/17 11:40:07;;;;;;;13.10;6.10;;;;;11.10;98766.20;;;;111110;1247;41140;-66
2022/03/17 11:42:56;;;;;;;12.80;5.60;;;;;11.00;98768.80;;;;111050;1246;41133;-66
2022/03/17 11:45:29;;;;;;;13.20;5.90;;;;;10.90;98768.80;;;;111080;1247;41181;-65
2022/03/17 11:48:07;;;;;;;12.90;5.60;;;;;10.80;98766.20;;;;111100;1247;41603;-67
2022/03/17 11:50:40;;;;;;;11.40;5.40;;;;;10.70;98770.40;;;;111101;1247;41737;-66
2022/03/17 11:53:12;;;;;;;13.50;6.10;;;;;10.60;98767.00;;;;110998;1247;42153;-67
2022/03/17 11:55:42;;;;;;;12.90;5.90;;;;;10.60;98766.60;;;;111041;1247;41272;-67
2022/03/17 11:58:24;;;;;;;12.60;5.90;;;;;10.60;98765.60;;;;111002;1248;41137;-66
2022/03/17 12:01:04;;;;;;;13.40;6.30;;;;;10.70;98768.40;;;;111057;1247;41128;-66
2022/03/17 12:03:51;;;;;;;19.80;6.40;;;;;10.70;98767.00;;;;111095;1248;42272;-68
2022/03/17 12:06:21;;;;;;;12.40;6.00;;;;;10.80;98763.60;;;;110960;1248;41153;-65
2022/03/17 12:09:04;;;;;;;11.70;5.30;;;;;10.80;98762.00;;;;110902;1247;42398;-66
2022/03/17 12:11:45;;;;;;;13.60;6.80;;;;;11.10;98759.60;;;;111094;1248;41246;-66
2022/03/17 12:14:24;;;;;;;14.20;7.00;;;;;11.30;98748.00;;;;111052;1248;42214;-67
2022/03/17 12:17:16;;;;;;;15.20;6.10;;;;;11.60;98748.20;;;;111149;1247;41697;-66
2022/03/17 12:19:50;;;;;;;13.50;6.20;;;;;12.00;98737.40;;;;111179;1246;41170;-65
2022/03/17 12:22:39;;;;;;;14.40;6.40;;;;;12.62;98748.00;;;;111196;1247;41314;-67
2022/03/17 12:25:18;;;;;;;13.90;6.40;;;;;13.22;98734.20;;;;111081;1247;41153;-66
2022/03/17 12:27:56;;;;;;;10.60;5.30;;;;;13.40;98740.80;;;;111099;1247;41880;-66
2022/03/17 12:30:26;;;;;;;11.70;5.50;;;;;13.76;98720.80;;;;111017;1247;41887;-66
2022/03/17 12:32:58;;;;;;;12.80;5.50;;;;;14.30;98734.20;;;;111094;1247;41244;-66